Terminal Aerodrome Forecast
Issued by NWS Huntsville, AL

Home | Current Version | Previous Version | Text Only | Print | Product List | Glossary On
Versions: 1 2 3 4 5 6 7 8 9 10 11 12 13 14 15 16 17 18 19 20 21 22 23 24 25 26 27 28 29 30 31 32 33 34 35 36 37 38 39 40 41 42 43 44 45 46 47 48 49 50
423
FTUS44 KHUN 230535
TAFHSV
TAF
KHSV 230535Z 2306/2406 VRB03KT P6SM BKN013 OVC150
      TEMPO 2306/2309 BKN008 OVC100
     FM231300 36007KT P6SM OVC015
     FM231500 01011G17KT P6SM BKN025
     FM231800 01012G19KT P6SM SCT030
     FM240200 01006KT P6SM SKC=

USA.gov is the U.S. government's official web portal to all federal, state and local government web resources and services.